Terminal Aerodrome Forecast
Issued by NWS Wakefield, VA

Home | Current Version | Previous Version | Text Only | Print | Product List | Glossary On
Versions: 1 2 3 4 5 6 7 8 9 10 11 12 13 14 15 16 17 18 19 20 21 22 23 24 25 26 27 28 29 30 31 32 33 34 35 36 37 38 39
389
FTUS41 KAKQ 240206 AAB
TAFECG
TAF AMD
KECG 240206Z 2402/2424 34011KT P6SM OVC006
      TEMPO 2402/2404 5SM -RA BR OVC004
     FM240600 32011KT P6SM -DZ VCSH OVC012
     FM241200 31012G19KT P6SM OVC010
     FM241800 30015G23KT P6SM BKN040
     FM242000 30012G19KT P6SM SCT050=

USA.gov is the U.S. government's official web portal to all federal, state and local government web resources and services.